createdAt,value
2023-03-13T00:01:45.671Z,14.17
2023-03-13T00:04:12.765Z,10.87
2023-03-13T00:06:43.132Z,12.70
2023-03-13T00:09:12.701Z,8.87
2023-03-13T00:11:40.820Z,10.77
2023-03-13T00:14:15.055Z,10.33
2023-03-13T00:16:44.315Z,13.47
2023-03-13T00:19:11.486Z,9.40
2023-03-13T00:21:41.938Z,10.33
2023-03-13T00:24:12.632Z,10.57
2023-03-13T00:26:40.968Z,9.70
2023-03-13T00:29:11.166Z,8.30
2023-03-13T00:31:38.671Z,11.90
2023-03-13T00:34:09.558Z,8.73
2023-03-13T00:36:38.709Z,10.40
2023-03-13T00:39:07.516Z,10.27
2023-03-13T00:41:37.041Z,7.40
2023-03-13T00:44:10.233Z,10.10
2023-03-13T00:46:39.291Z,11.17
2023-03-13T00:49:06.781Z,10.30
2023-03-13T00:51:33.877Z,10.30
2023-03-13T00:54:01.132Z,7.53
2023-03-13T00:56:29.431Z,6.50
2023-03-13T00:58:56.660Z,6.70
2023-03-13T01:01:26.249Z,6.27
2023-03-13T01:03:57.427Z,9.97
2023-03-13T01:06:29.987Z,6.00
2023-03-13T01:08:57.614Z,9.00
2023-03-13T01:11:30.124Z,5.90
2023-03-13T01:14:01.846Z,6.33
2023-03-13T01:16:31.825Z,7.00
2023-03-13T01:19:11.897Z,9.00
2023-03-13T01:21:44.182Z,4.80
2023-03-13T01:24:13.286Z,6.60
2023-03-13T01:26:40.687Z,8.70
2023-03-13T01:29:10.862Z,6.03
2023-03-13T01:31:41.009Z,3.97
2023-03-13T01:34:11.601Z,3.33
2023-03-13T01:36:39.806Z,3.60
2023-03-13T01:39:08.844Z,3.77
2023-03-13T01:41:38.230Z,4.20
2023-03-13T01:44:27.539Z,6.47
2023-03-13T01:46:55.646Z,4.47
2023-03-13T01:49:34.851Z,2.90
2023-03-13T01:52:09.559Z,4.57
2023-03-13T01:54:59.755Z,2.73
2023-03-13T01:57:33.628Z,3.63
2023-03-13T02:00:13.211Z,3.30
2023-03-13T02:02:48.573Z,6.73
2023-03-13T02:05:21.569Z,3.50
2023-03-13T02:07:57.216Z,6.97
2023-03-13T02:10:26.747Z,6.03
2023-03-13T02:12:54.245Z,4.27
2023-03-13T02:15:25.834Z,3.20
2023-03-13T02:17:55.051Z,6.30
2023-03-13T02:20:22.925Z,3.67
2023-03-13T02:23:27.331Z,2.90
2023-03-13T02:26:00.632Z,4.67
2023-03-13T02:28:34.051Z,6.83
2023-03-13T02:31:01.586Z,5.10
2023-03-13T02:33:39.444Z,5.60
2023-03-13T02:36:08.177Z,5.97
2023-03-13T02:38:55.316Z,5.77
2023-03-13T02:41:24.814Z,7.97
2023-03-13T02:43:51.856Z,7.43
2023-03-13T02:46:21.647Z,6.83
2023-03-13T02:48:53.055Z,11.60
2023-03-13T02:51:30.016Z,5.93
2023-03-13T02:54:01.752Z,6.43
2023-03-13T02:56:35.843Z,8.63
2023-03-13T02:59:06.987Z,7.33
2023-03-13T03:01:34.982Z,7.37
2023-03-13T03:04:04.183Z,10.60
2023-03-13T03:06:31.339Z,6.20
2023-03-13T03:08:59.790Z,7.67
2023-03-13T03:11:29.836Z,8.20
2023-03-13T03:13:57.811Z,8.17
2023-03-13T03:16:27.862Z,6.93
2023-03-13T03:18:56.037Z,8.77
2023-03-13T03:21:24.029Z,8.07
2023-03-13T03:23:51.705Z,10.10
2023-03-13T03:26:19.837Z,10.17
2023-03-13T03:28:47.253Z,9.83
2023-03-13T03:31:17.777Z,8.77
2023-03-13T03:33:47.136Z,7.07
2023-03-13T03:36:22.587Z,8.80
2023-03-13T03:38:55.858Z,6.97
2023-03-13T03:41:23.056Z,5.13
2023-03-13T03:43:50.510Z,8.50
2023-03-13T03:46:19.682Z,6.70
2023-03-13T03:48:49.808Z,6.17
2023-03-13T03:51:16.983Z,9.07
2023-03-13T03:53:47.357Z,10.27
2023-03-13T03:56:14.459Z,7.07
2023-03-13T03:58:41.440Z,7.20
2023-03-13T04:01:08.643Z,8.10
2023-03-13T04:03:37.673Z,9.77
2023-03-13T04:06:10.719Z,8.63
2023-03-13T04:08:37.704Z,13.10
2023-03-13T04:11:10.662Z,10.93
2023-03-13T04:13:39.718Z,10.20
2023-03-13T04:16:09.420Z,7.50
2023-03-13T04:18:39.623Z,10.63
2023-03-13T04:21:07.242Z,8.07
2023-03-13T04:23:37.265Z,10.90
2023-03-13T04:26:04.455Z,7.20
2023-03-13T04:28:31.569Z,9.70
2023-03-13T04:31:01.463Z,13.37
2023-03-13T04:33:30.581Z,7.87
2023-03-13T04:35:58.681Z,7.03
2023-03-13T04:38:25.946Z,6.67
2023-03-13T04:40:54.029Z,11.60
2023-03-13T04:43:23.082Z,8.93
2023-03-13T04:45:55.059Z,5.57
2023-03-13T04:48:25.208Z,9.43
2023-03-13T04:50:53.224Z,13.50
2023-03-13T04:53:21.202Z,11.80
2023-03-13T04:55:51.482Z,10.17
2023-03-13T04:58:18.455Z,8.17
2023-03-13T05:00:45.524Z,8.07
2023-03-13T05:03:15.684Z,8.17
2023-03-13T05:05:42.589Z,10.50
2023-03-13T05:08:15.834Z,10.60
2023-03-13T05:10:43.596Z,7.57
2023-03-13T05:13:10.690Z,8.53
2023-03-13T05:15:37.843Z,10.00
2023-03-13T05:18:08.001Z,10.40
2023-03-13T05:20:35.017Z,11.43
2023-03-13T05:23:02.965Z,6.93
2023-03-13T05:25:32.054Z,6.30
2023-03-13T05:28:01.388Z,9.17
2023-03-13T05:30:30.395Z,6.40
2023-03-13T05:33:00.781Z,8.77
2023-03-13T05:35:27.912Z,11.80
2023-03-13T05:37:58.038Z,7.10
2023-03-13T05:40:28.081Z,9.77
2023-03-13T05:42:56.090Z,6.83
2023-03-13T05:45:26.099Z,11.93
2023-03-13T05:47:56.438Z,10.27
2023-03-13T05:50:26.024Z,9.37
2023-03-13T05:52:53.575Z,12.57
2023-03-13T05:55:20.785Z,8.10
2023-03-13T05:57:50.825Z,8.03
2023-03-13T06:00:21.274Z,10.07
2023-03-13T06:02:49.325Z,9.17
2023-03-13T06:05:17.377Z,12.67
2023-03-13T06:07:45.385Z,11.77
2023-03-13T06:10:12.714Z,12.57
2023-03-13T06:12:40.732Z,9.33
2023-03-13T06:15:11.991Z,6.93
2023-03-13T06:17:42.244Z,8.90
2023-03-13T06:20:10.216Z,9.03
2023-03-13T06:22:37.441Z,5.73
2023-03-13T06:25:07.895Z,8.57
2023-03-13T06:27:36.313Z,9.33
2023-03-13T06:30:04.184Z,6.23
2023-03-13T06:32:31.497Z,9.60
2023-03-13T06:35:01.682Z,6.23
2023-03-13T06:37:31.769Z,6.50
2023-03-13T06:39:59.881Z,5.00
2023-03-13T06:42:28.037Z,6.57
2023-03-13T06:44:57.097Z,6.53
2023-03-13T06:47:27.208Z,5.43
2023-03-13T06:49:54.315Z,7.40
2023-03-13T06:52:26.490Z,7.90
2023-03-13T06:55:01.258Z,7.10
2023-03-13T06:57:31.380Z,5.13
2023-03-13T07:00:00.410Z,5.70
2023-03-13T07:02:30.485Z,4.17
2023-03-13T07:04:58.506Z,5.13
2023-03-13T07:07:33.198Z,4.97
2023-03-13T07:10:04.994Z,9.53
2023-03-13T07:12:35.594Z,8.27
2023-03-13T07:15:02.951Z,9.57
2023-03-13T07:17:33.152Z,4.40
2023-03-13T07:20:01.279Z,5.20
2023-03-13T07:22:29.421Z,6.07
2023-03-13T07:24:59.506Z,5.13
2023-03-13T07:27:26.640Z,5.17
2023-03-13T07:29:56.910Z,4.67
2023-03-13T07:32:33.441Z,3.63
2023-03-13T07:35:04.858Z,8.10
2023-03-13T07:37:35.026Z,4.93
2023-03-13T07:40:02.079Z,3.47
2023-03-13T07:42:29.229Z,5.80
2023-03-13T07:44:59.300Z,7.10
2023-03-13T07:47:26.348Z,8.17
2023-03-13T07:49:54.097Z,5.67
2023-03-13T07:52:21.179Z,5.17
2023-03-13T07:54:50.332Z,4.40
2023-03-13T07:57:17.733Z,5.17
2023-03-13T07:59:45.716Z,5.20
2023-03-13T08:02:14.036Z,5.37
2023-03-13T08:04:41.340Z,5.87
2023-03-13T08:07:12.844Z,3.97
2023-03-13T08:09:41.530Z,7.30
2023-03-13T08:12:09.053Z,6.20
2023-03-13T08:14:37.040Z,4.43
2023-03-13T08:17:04.141Z,3.17
2023-03-13T08:19:38.628Z,3.27
2023-03-13T08:22:05.763Z,4.90
2023-03-13T08:24:32.664Z,3.83
2023-03-13T08:26:59.753Z,2.30
2023-03-13T08:29:28.795Z,3.97
2023-03-13T08:31:55.841Z,5.57
2023-03-13T08:34:23.902Z,6.33
2023-03-13T08:36:53.963Z,2.73
2023-03-13T08:39:21.476Z,3.00
2023-03-13T08:41:49.043Z,4.57
2023-03-13T08:44:18.431Z,3.93
2023-03-13T08:46:45.759Z,3.97
2023-03-13T08:49:13.630Z,4.23
2023-03-13T08:51:42.755Z,5.67
2023-03-13T08:54:15.941Z,2.83
2023-03-13T08:56:44.137Z,3.57
2023-03-13T08:59:15.699Z,1.70
2023-03-13T09:01:52.164Z,4.77
2023-03-13T09:04:21.198Z,4.17
2023-03-13T09:06:49.543Z,3.13
2023-03-13T09:09:16.593Z,6.73
2023-03-13T09:11:45.874Z,3.03
2023-03-13T09:14:13.877Z,3.07
2023-03-13T09:16:46.478Z,5.97
2023-03-13T09:19:15.600Z,7.63
2023-03-13T09:21:46.595Z,7.47
2023-03-13T09:24:15.063Z,5.87
2023-03-13T09:26:48.991Z,3.93
2023-03-13T09:29:25.240Z,6.13
2023-03-13T09:31:55.190Z,3.87
2023-03-13T09:34:25.744Z,4.20
2023-03-13T09:36:55.697Z,4.43
2023-03-13T09:39:22.644Z,8.00
2023-03-13T09:42:10.179Z,7.00
2023-03-13T09:45:09.922Z,3.03
2023-03-13T09:47:50.675Z,5.97
2023-03-13T09:50:29.259Z,4.87
2023-03-13T09:53:06.049Z,6.47
2023-03-13T09:55:36.874Z,6.00
2023-03-13T09:58:21.857Z,5.83
2023-03-13T10:01:03.423Z,6.00
2023-03-13T10:03:44.281Z,5.87
2023-03-13T10:06:35.476Z,7.60
2023-03-13T10:09:02.937Z,6.70
2023-03-13T10:12:15.186Z,7.83
2023-03-13T10:15:07.208Z,7.60
2023-03-13T10:17:39.339Z,7.70
2023-03-13T10:20:22.872Z,6.67
2023-03-13T10:22:58.670Z,5.57
2023-03-13T10:25:39.331Z,6.00
2023-03-13T10:28:14.892Z,8.70
2023-03-13T10:30:49.417Z,10.17
2023-03-13T10:33:26.967Z,9.23
2023-03-13T10:36:07.251Z,8.90
2023-03-13T10:38:56.121Z,10.50
2023-03-13T10:41:36.594Z,6.80
2023-03-13T10:44:30.760Z,7.93
2023-03-13T10:47:02.154Z,4.70
2023-03-13T10:49:32.647Z,8.20
2023-03-13T10:52:08.101Z,5.63
2023-03-13T10:54:40.045Z,5.53
2023-03-13T10:57:25.496Z,9.77
2023-03-13T10:59:56.052Z,8.83
2023-03-13T11:02:35.760Z,8.07
2023-03-13T11:05:23.937Z,6.80
2023-03-13T11:07:52.300Z,8.50
2023-03-13T11:10:23.671Z,11.33
2023-03-13T11:12:53.137Z,8.00
2023-03-13T11:15:48.434Z,8.97
2023-03-13T11:18:29.469Z,6.87
2023-03-13T11:21:08.710Z,8.40
2023-03-13T11:23:52.591Z,9.83
2023-03-13T11:26:40.344Z,10.13
2023-03-13T11:29:21.898Z,11.70
2023-03-13T11:32:00.661Z,12.13
2023-03-13T11:34:59.769Z,5.60
2023-03-13T11:37:31.526Z,8.47
2023-03-13T11:39:58.510Z,9.33
2023-03-13T11:42:35.572Z,7.70
2023-03-13T11:45:37.812Z,9.13
2023-03-13T11:48:52.032Z,8.73
2023-03-13T11:51:46.386Z,11.77
2023-03-13T11:54:50.543Z,8.03
2023-03-13T11:57:35.365Z,12.23
2023-03-13T12:00:26.185Z,9.73
2023-03-13T12:03:16.490Z,10.23
2023-03-13T12:05:57.530Z,12.07
2023-03-13T12:08:30.746Z,12.47
2023-03-13T12:11:25.978Z,9.97
2023-03-13T12:14:04.455Z,10.70
2023-03-13T12:16:51.519Z,9.93
2023-03-13T12:19:41.357Z,9.43
2023-03-13T12:22:23.429Z,8.77
2023-03-13T12:25:06.957Z,8.17
2023-03-13T12:27:43.179Z,9.20
2023-03-13T12:30:33.909Z,11.97
2023-03-13T12:33:16.845Z,15.63
2023-03-13T12:35:52.220Z,13.87
2023-03-13T12:38:30.958Z,11.07
2023-03-13T12:41:24.832Z,12.20
2023-03-13T12:44:07.766Z,12.90
2023-03-13T12:46:57.828Z,11.37
2023-03-13T12:49:57.103Z,12.70
2023-03-13T12:53:01.564Z,14.63
2023-03-13T12:55:52.758Z,10.53
2023-03-13T12:58:45.263Z,9.60
2023-03-13T13:01:33.817Z,11.27
2023-03-13T13:04:07.326Z,13.97
2023-03-13T13:06:55.217Z,11.43
2023-03-13T13:09:32.725Z,13.80
2023-03-13T13:12:20.025Z,15.93
2023-03-13T13:14:50.258Z,10.20
2023-03-13T13:17:17.394Z,8.47
2023-03-13T13:19:48.555Z,12.83
2023-03-13T13:22:36.758Z,12.47
2023-03-13T13:25:11.093Z,9.67
2023-03-13T13:27:41.064Z,12.90
2023-03-13T13:30:23.976Z,17.90
2023-03-13T13:33:18.753Z,10.90
2023-03-13T13:35:48.007Z,14.00
2023-03-13T13:38:18.136Z,12.60
2023-03-13T13:41:04.140Z,16.33
2023-03-13T13:43:36.211Z,13.23
2023-03-13T13:46:16.123Z,12.23
2023-03-13T13:48:45.528Z,12.03
2023-03-13T13:51:14.191Z,13.50
2023-03-13T13:53:45.186Z,13.13
2023-03-13T13:56:36.852Z,13.57
2023-03-13T13:59:05.024Z,10.07
2023-03-13T14:01:33.908Z,15.90
2023-03-13T14:04:27.145Z,10.57
2023-03-13T14:07:01.243Z,11.57
2023-03-13T14:09:40.334Z,13.57
2023-03-13T14:12:40.367Z,13.33
2023-03-13T14:15:16.719Z,12.47
2023-03-13T14:18:10.000Z,12.03
2023-03-13T14:20:38.641Z,10.93
2023-03-13T14:23:12.000Z,11.43
2023-03-13T14:25:48.999Z,12.13
2023-03-13T14:28:35.078Z,13.07
2023-03-13T14:31:02.171Z,14.17
2023-03-13T14:33:29.380Z,14.20
2023-03-13T14:35:57.948Z,18.77
2023-03-13T14:38:27.446Z,10.00
2023-03-13T14:40:55.774Z,14.30
2023-03-13T14:43:32.497Z,9.70
2023-03-13T14:46:12.907Z,13.17
2023-03-13T14:48:43.169Z,11.97
2023-03-13T14:51:24.000Z,12.63
2023-03-13T14:54:02.259Z,15.23
2023-03-13T14:56:45.307Z,12.33
2023-03-13T14:59:17.252Z,15.63
2023-03-13T15:01:47.033Z,11.80
2023-03-13T15:04:14.204Z,13.20
2023-03-13T15:06:42.335Z,21.00
2023-03-13T15:09:15.764Z,14.07
2023-03-13T15:12:06.091Z,14.50
2023-03-13T15:14:44.713Z,13.43
2023-03-13T15:17:17.545Z,12.57
2023-03-13T15:19:49.368Z,15.23
2023-03-13T15:22:22.148Z,13.97
2023-03-13T15:25:05.253Z,18.53
2023-03-13T15:27:34.612Z,14.27
2023-03-13T15:30:05.236Z,16.10
2023-03-13T15:32:39.214Z,18.23
2023-03-13T15:35:27.473Z,14.30
2023-03-13T15:37:57.382Z,17.37
2023-03-13T15:40:25.111Z,14.77
2023-03-13T15:42:54.080Z,12.73
2023-03-13T15:45:21.246Z,13.27
2023-03-13T15:47:51.331Z,15.37
2023-03-13T15:50:22.542Z,9.60
2023-03-13T15:52:52.574Z,16.47
2023-03-13T15:55:23.050Z,15.20
2023-03-13T15:57:51.135Z,13.70
2023-03-13T16:00:26.679Z,19.77
2023-03-13T16:02:53.814Z,20.60
2023-03-13T16:05:20.888Z,21.10
2023-03-13T16:07:49.016Z,19.23
2023-03-13T16:10:25.901Z,20.03
2023-03-13T16:12:54.885Z,13.83
2023-03-13T16:15:25.014Z,20.13
2023-03-13T16:17:53.976Z,16.17
2023-03-13T16:20:23.835Z,14.70
2023-03-13T16:22:53.674Z,15.80
2023-03-13T16:25:23.391Z,20.53
2023-03-13T16:27:55.146Z,19.33
2023-03-13T16:30:29.022Z,16.13
2023-03-13T16:32:56.432Z,22.57
2023-03-13T16:35:26.837Z,17.80
2023-03-13T16:37:55.824Z,15.60
2023-03-13T16:40:26.907Z,11.87
2023-03-13T16:42:56.988Z,13.17
2023-03-13T16:45:26.342Z,15.20
2023-03-13T16:47:54.605Z,14.33
2023-03-13T16:50:26.739Z,21.73
2023-03-13T16:52:54.672Z,21.70
2023-03-13T16:55:28.836Z,17.90
2023-03-13T16:57:59.875Z,18.27
2023-03-13T17:00:31.980Z,22.17
2023-03-13T17:03:02.306Z,17.60
2023-03-13T17:05:29.710Z,15.80
2023-03-13T17:07:57.837Z,11.00
2023-03-13T17:10:29.352Z,16.63
2023-03-13T17:12:56.715Z,19.23
2023-03-13T17:15:25.374Z,17.63
2023-03-13T17:17:54.318Z,17.43
2023-03-13T17:20:26.054Z,21.50
2023-03-13T17:23:01.285Z,15.37
2023-03-13T17:25:29.369Z,14.63
2023-03-13T17:27:57.426Z,15.07
2023-03-13T17:30:24.526Z,19.20
2023-03-13T17:32:51.780Z,15.43
2023-03-13T17:35:23.772Z,13.43
2023-03-13T17:37:51.072Z,13.90
2023-03-13T17:40:28.306Z,19.57
2023-03-13T17:42:57.746Z,18.47
2023-03-13T17:45:25.544Z,20.43
2023-03-13T17:47:55.872Z,19.60
2023-03-13T17:50:27.155Z,22.47
2023-03-13T17:52:55.971Z,13.53
2023-03-13T17:55:24.567Z,14.27
2023-03-13T17:57:53.833Z,18.10
2023-03-13T18:00:32.186Z,12.67
2023-03-13T18:02:59.460Z,13.80
2023-03-13T18:05:28.235Z,19.87
2023-03-13T18:07:58.390Z,17.70
2023-03-13T18:10:29.639Z,17.57
2023-03-13T18:12:57.641Z,15.87
2023-03-13T18:15:27.024Z,16.07
2023-03-13T18:17:56.277Z,17.83
2023-03-13T18:20:32.167Z,16.13
2023-03-13T18:23:01.284Z,19.13
2023-03-13T18:25:29.612Z,19.13
2023-03-13T18:27:58.112Z,17.10
2023-03-13T18:30:27.618Z,15.77
2023-03-13T18:32:54.886Z,15.07
2023-03-13T18:35:23.021Z,20.07
2023-03-13T18:37:53.219Z,15.47
2023-03-13T18:40:25.460Z,18.30
2023-03-13T18:42:53.540Z,19.20
2023-03-13T18:45:24.988Z,18.27
2023-03-13T18:47:53.707Z,21.17
2023-03-13T18:50:30.973Z,23.50
2023-03-13T18:53:00.508Z,16.17
2023-03-13T18:55:31.481Z,21.17
2023-03-13T18:58:01.769Z,17.73
2023-03-13T19:00:31.924Z,21.23
2023-03-13T19:03:02.208Z,17.47
2023-03-13T19:05:29.386Z,19.00
2023-03-13T19:07:59.567Z,16.87
2023-03-13T19:10:31.545Z,21.47
2023-03-13T19:12:59.788Z,21.10
2023-03-13T19:15:31.660Z,17.40
2023-03-13T19:18:03.550Z,18.10
2023-03-13T19:20:34.044Z,18.37
2023-03-13T19:23:01.130Z,20.13
2023-03-13T19:25:29.693Z,16.30
2023-03-13T19:27:56.628Z,21.40
2023-03-13T19:30:25.486Z,20.83
2023-03-13T19:32:55.706Z,17.83
2023-03-13T19:35:22.904Z,19.00
2023-03-13T19:37:53.102Z,19.63
2023-03-13T19:40:25.923Z,25.90
2023-03-13T19:42:54.240Z,17.20
2023-03-13T19:45:23.312Z,18.10
2023-03-13T19:47:52.421Z,12.60
2023-03-13T19:50:27.758Z,17.17
2023-03-13T19:52:54.871Z,22.37
2023-03-13T19:55:22.424Z,19.20
2023-03-13T19:57:49.568Z,15.03
2023-03-13T20:00:22.735Z,19.63
2023-03-13T20:02:52.137Z,18.97
2023-03-13T20:05:23.177Z,19.60
2023-03-13T20:07:50.298Z,23.80
2023-03-13T20:10:18.322Z,17.00
2023-03-13T20:12:48.386Z,16.43
2023-03-13T20:15:15.496Z,14.83
2023-03-13T20:17:42.587Z,16.77
2023-03-13T20:20:11.166Z,17.50
2023-03-13T20:22:38.376Z,17.40
2023-03-13T20:25:05.622Z,14.07
2023-03-13T20:27:35.282Z,17.87
2023-03-13T20:30:04.818Z,17.77
2023-03-13T20:32:32.928Z,17.07
2023-03-13T20:35:00.111Z,17.23
2023-03-13T20:37:30.204Z,14.70
2023-03-13T20:39:57.158Z,16.17
2023-03-13T20:42:24.105Z,17.70
2023-03-13T20:44:52.247Z,15.33
2023-03-13T20:47:19.659Z,15.70
2023-03-13T20:49:48.020Z,14.07
2023-03-13T20:52:20.056Z,14.07
2023-03-13T20:54:47.108Z,16.57
2023-03-13T20:57:19.606Z,19.80
2023-03-13T20:59:49.038Z,15.63
2023-03-13T21:02:19.177Z,15.03
2023-03-13T21:04:49.373Z,10.27
2023-03-13T21:07:20.627Z,18.67
2023-03-13T21:09:48.579Z,17.87
2023-03-13T21:12:15.663Z,17.53
2023-03-13T21:14:46.499Z,8.40
2023-03-13T21:17:15.939Z,12.07
2023-03-13T21:19:49.237Z,9.67
2023-03-13T21:22:16.254Z,14.03
2023-03-13T21:24:47.983Z,13.50
2023-03-13T21:27:17.675Z,12.93
2023-03-13T21:29:48.139Z,15.23
2023-03-13T21:32:15.404Z,12.53
2023-03-13T21:34:44.353Z,10.77
2023-03-13T21:37:13.223Z,15.57
2023-03-13T21:39:42.415Z,17.33
2023-03-13T21:42:17.156Z,19.80
2023-03-13T21:44:48.337Z,15.83
2023-03-13T21:47:24.370Z,15.60
2023-03-13T21:49:53.894Z,15.17
2023-03-13T21:52:24.194Z,16.67
2023-03-13T21:54:54.288Z,13.00
2023-03-13T21:57:21.264Z,19.17
2023-03-13T21:59:51.282Z,12.67
2023-03-13T22:02:18.343Z,10.80
2023-03-13T22:04:46.321Z,12.73
2023-03-13T22:07:13.381Z,14.87
2023-03-13T22:09:40.473Z,7.97
2023-03-13T22:12:07.611Z,10.37
2023-03-13T22:14:34.672Z,6.13
2023-03-13T22:17:01.889Z,7.27
2023-03-13T22:19:29.000Z,7.47
2023-03-13T22:21:57.401Z,7.97
2023-03-13T22:24:24.463Z,5.37
2023-03-13T22:26:53.441Z,4.87
2023-03-13T22:29:20.510Z,7.67
2023-03-13T22:31:49.450Z,9.50
2023-03-13T22:34:18.449Z,6.63
2023-03-13T22:36:48.447Z,5.57
2023-03-13T22:39:17.646Z,3.97
2023-03-13T22:41:44.683Z,6.20
2023-03-13T22:44:11.984Z,10.90
2023-03-13T22:46:42.123Z,8.53
2023-03-13T22:49:12.223Z,7.00
2023-03-13T22:51:45.207Z,4.83
2023-03-13T22:54:15.400Z,8.83
2023-03-13T22:56:42.389Z,4.07
2023-03-13T22:59:10.519Z,5.13
2023-03-13T23:01:38.490Z,8.10
2023-03-13T23:04:05.474Z,7.67
2023-03-13T23:06:38.839Z,7.37
2023-03-13T23:09:07.900Z,8.47
2023-03-13T23:11:37.052Z,5.63
2023-03-13T23:14:04.184Z,7.00
2023-03-13T23:16:33.314Z,5.40
2023-03-13T23:19:03.335Z,4.37
2023-03-13T23:21:30.402Z,8.67
2023-03-13T23:23:59.385Z,7.80
2023-03-13T23:26:26.426Z,6.67
2023-03-13T23:29:00.429Z,6.73
2023-03-13T23:31:29.466Z,7.80
2023-03-13T23:33:59.236Z,11.13
2023-03-13T23:36:29.228Z,5.80
2023-03-13T23:38:59.781Z,10.27
2023-03-13T23:41:27.833Z,7.37
2023-03-13T23:43:58.492Z,12.43
2023-03-13T23:46:28.596Z,9.53
2023-03-13T23:48:56.990Z,7.13
2023-03-13T23:51:24.696Z,9.50
2023-03-13T23:53:54.736Z,8.27
2023-03-13T23:56:25.596Z,8.83
2023-03-13T23:58:58.154Z,8.80
